createdAt,value
2022-09-22T00:01:33.943Z,22.96
2022-09-22T00:04:06.590Z,22.95
2022-09-22T00:06:40.062Z,22.93
2022-09-22T00:09:10.702Z,22.95
2022-09-22T00:11:42.883Z,22.90
2022-09-22T00:14:21.286Z,22.88
2022-09-22T00:16:53.214Z,22.83
2022-09-22T00:19:24.067Z,22.73
2022-09-22T00:21:52.016Z,22.71
2022-09-22T00:24:23.123Z,22.71
2022-09-22T00:26:52.416Z,22.71
2022-09-22T00:29:32.164Z,22.69
2022-09-22T00:32:03.666Z,22.70
2022-09-22T00:34:35.178Z,22.62
2022-09-22T00:37:03.229Z,22.64
2022-09-22T00:39:33.015Z,22.64
2022-09-22T00:42:00.862Z,22.57
2022-09-22T00:44:39.291Z,22.59
2022-09-22T00:47:13.045Z,22.60
2022-09-22T00:49:47.434Z,22.61
2022-09-22T00:52:23.494Z,22.66
2022-09-22T00:54:55.117Z,22.67
2022-09-22T00:57:29.384Z,22.68
2022-09-22T00:59:57.745Z,22.63
2022-09-22T01:02:25.456Z,22.63
2022-09-22T01:04:53.382Z,22.55
2022-09-22T01:07:23.647Z,22.53
2022-09-22T01:09:52.748Z,22.53
2022-09-22T01:12:20.489Z,22.48
2022-09-22T01:15:21.780Z,22.55
2022-09-22T01:18:03.902Z,22.56
2022-09-22T01:20:47.377Z,22.50
2022-09-22T01:23:39.735Z,22.50
2022-09-22T01:26:26.704Z,22.56
2022-09-22T01:29:20.073Z,22.54
2022-09-22T01:32:10.783Z,22.41
2022-09-22T01:34:56.980Z,22.40
2022-09-22T01:37:49.962Z,22.45
2022-09-22T01:40:31.606Z,22.39
2022-09-22T01:43:15.576Z,22.48
2022-09-22T01:45:48.872Z,22.48
2022-09-22T01:48:32.216Z,22.43
2022-09-22T01:51:26.403Z,22.40
2022-09-22T01:54:06.796Z,22.32
2022-09-22T01:56:37.571Z,22.30
2022-09-22T01:59:08.686Z,22.24
2022-09-22T02:01:42.025Z,22.27
2022-09-22T02:04:36.771Z,22.06
2022-09-22T02:07:10.933Z,22.08
2022-09-22T02:09:41.904Z,22.02
2022-09-22T02:12:09.939Z,22.06
2022-09-22T02:14:38.089Z,22.05
2022-09-22T02:17:08.586Z,22.05
2022-09-22T02:19:41.349Z,22.11
2022-09-22T02:22:11.672Z,22.08
2022-09-22T02:24:45.152Z,22.16
2022-09-22T02:27:27.602Z,22.08
2022-09-22T02:30:11.617Z,21.97
2022-09-22T02:32:57.168Z,22.01
2022-09-22T02:35:49.278Z,21.88
2022-09-22T02:38:27.220Z,21.88
2022-09-22T02:41:07.297Z,21.73
2022-09-22T02:43:50.702Z,21.71
2022-09-22T02:46:26.311Z,21.74
2022-09-22T02:49:00.608Z,21.74
2022-09-22T02:51:30.792Z,21.63
2022-09-22T02:53:58.975Z,21.59
2022-09-22T02:56:26.841Z,21.51
2022-09-22T02:58:58.319Z,21.46
2022-09-22T03:01:27.254Z,21.39
2022-09-22T03:03:55.156Z,21.46
2022-09-22T03:06:23.715Z,21.34
2022-09-22T03:08:52.146Z,21.32
2022-09-22T03:11:19.884Z,21.36
2022-09-22T03:13:47.228Z,21.29
2022-09-22T03:16:15.176Z,21.23
2022-09-22T03:18:43.172Z,21.20
2022-09-22T03:21:10.852Z,21.10
2022-09-22T03:23:38.738Z,21.14
2022-09-22T03:26:06.377Z,21.15
2022-09-22T03:28:34.217Z,21.08
2022-09-22T03:31:01.731Z,21.05
2022-09-22T03:33:29.567Z,21.07
2022-09-22T03:35:57.499Z,21.13
2022-09-22T03:38:25.078Z,21.07
2022-09-22T03:40:54.195Z,21.08
2022-09-22T03:43:22.262Z,21.11
2022-09-22T03:45:57.669Z,20.92
2022-09-22T03:48:26.399Z,21.03
2022-09-22T03:50:54.489Z,21.01
2022-09-22T03:53:23.010Z,21.04
2022-09-22T03:55:51.345Z,21.12
2022-09-22T03:58:23.923Z,21.16
2022-09-22T04:00:51.893Z,21.17
2022-09-22T04:03:19.328Z,21.17
2022-09-22T04:05:51.412Z,21.17
2022-09-22T04:08:19.276Z,21.17
2022-09-22T04:10:47.753Z,21.02
2022-09-22T04:13:16.346Z,21.11
2022-09-22T04:15:46.024Z,20.97
2022-09-22T04:18:15.050Z,21.00
2022-09-22T04:20:48.241Z,20.96
2022-09-22T04:23:27.987Z,21.01
2022-09-22T04:26:06.152Z,20.99
2022-09-22T04:28:34.519Z,20.94
2022-09-22T04:31:02.483Z,21.01
2022-09-22T04:33:35.332Z,21.09
2022-09-22T04:36:07.147Z,21.12
2022-09-22T04:38:38.121Z,21.09
2022-09-22T04:41:06.075Z,21.06
2022-09-22T04:43:34.623Z,21.12
2022-09-22T04:46:02.356Z,21.24
2022-09-22T04:48:30.460Z,21.29
2022-09-22T04:51:01.545Z,21.32
2022-09-22T04:53:30.138Z,21.34
2022-09-22T04:55:58.604Z,21.39
2022-09-22T04:58:27.398Z,21.39
2022-09-22T05:00:56.072Z,21.34
2022-09-22T05:03:23.644Z,21.33
2022-09-22T05:05:51.390Z,21.38
2022-09-22T05:08:19.358Z,21.41
2022-09-22T05:10:47.229Z,21.47
2022-09-22T05:13:15.746Z,21.44
2022-09-22T05:15:43.573Z,21.43
2022-09-22T05:18:11.612Z,21.41
2022-09-22T05:20:40.334Z,21.35
2022-09-22T05:23:07.790Z,21.40
2022-09-22T05:25:39.112Z,21.42
2022-09-22T05:28:06.570Z,21.40
2022-09-22T05:30:37.302Z,21.38
2022-09-22T05:33:08.772Z,21.40
2022-09-22T05:35:37.201Z,21.43
2022-09-22T05:38:05.209Z,21.49
2022-09-22T05:40:32.916Z,21.38
2022-09-22T05:43:01.170Z,21.43
2022-09-22T05:45:29.109Z,21.43
2022-09-22T05:47:56.742Z,21.50
2022-09-22T05:50:24.806Z,21.48
2022-09-22T05:53:03.344Z,21.52
2022-09-22T05:55:30.824Z,21.54
2022-09-22T05:58:00.302Z,21.58
2022-09-22T06:00:29.357Z,21.61
2022-09-22T06:02:58.213Z,21.66
2022-09-22T06:05:28.000Z,21.67
2022-09-22T06:08:04.384Z,21.69
2022-09-22T06:10:36.006Z,21.64
2022-09-22T06:13:12.926Z,21.66
2022-09-22T06:15:40.523Z,21.73
2022-09-22T06:18:14.680Z,21.74
2022-09-22T06:20:43.834Z,21.79
2022-09-22T06:23:13.715Z,21.75
2022-09-22T06:25:44.110Z,21.80
2022-09-22T06:28:14.813Z,21.83
2022-09-22T06:30:43.009Z,21.87
2022-09-22T06:33:13.105Z,21.89
2022-09-22T06:35:43.423Z,21.93
2022-09-22T06:38:15.548Z,21.93
2022-09-22T06:40:44.489Z,21.92
2022-09-22T06:43:24.166Z,21.93
2022-09-22T06:45:53.263Z,21.92
2022-09-22T06:48:24.750Z,21.98
2022-09-22T06:50:54.391Z,22.03
2022-09-22T06:53:25.259Z,21.94
2022-09-22T06:55:54.533Z,22.05
2022-09-22T06:58:25.833Z,22.08
2022-09-22T07:00:54.114Z,22.16
2022-09-22T07:03:25.049Z,22.18
2022-09-22T07:06:01.484Z,22.24
2022-09-22T07:08:34.625Z,22.47
2022-09-22T07:11:09.191Z,22.54
2022-09-22T07:13:42.455Z,22.71
2022-09-22T07:16:18.965Z,22.83
2022-09-22T07:18:55.370Z,22.96
2022-09-22T07:21:27.935Z,23.07
2022-09-22T07:23:57.150Z,23.15
2022-09-22T07:26:34.419Z,23.33
2022-09-22T07:29:08.925Z,23.37
2022-09-22T07:31:37.365Z,23.44
2022-09-22T07:34:05.215Z,23.59
2022-09-22T07:36:35.389Z,23.64
2022-09-22T07:39:07.758Z,23.90
2022-09-22T07:41:42.114Z,23.97
2022-09-22T07:44:29.945Z,24.18
2022-09-22T07:46:58.581Z,24.25
2022-09-22T07:49:26.704Z,24.37
2022-09-22T07:51:55.358Z,24.52
2022-09-22T07:54:27.188Z,24.43
2022-09-22T07:57:07.128Z,24.29
2022-09-22T07:59:36.604Z,24.38
2022-09-22T08:02:06.474Z,24.46
2022-09-22T08:04:37.589Z,24.55
2022-09-22T08:07:07.624Z,24.44
2022-09-22T08:09:35.185Z,24.25
2022-09-22T08:12:04.671Z,24.26
2022-09-22T08:14:32.644Z,24.37
2022-09-22T08:17:00.473Z,24.40
2022-09-22T08:19:28.248Z,24.45
2022-09-22T08:21:56.109Z,24.48
2022-09-22T08:24:24.543Z,24.60
2022-09-22T08:26:56.473Z,24.67
2022-09-22T08:29:24.954Z,24.58
2022-09-22T08:31:54.526Z,24.64
2022-09-22T08:34:23.020Z,24.65
2022-09-22T08:36:51.061Z,24.79
2022-09-22T08:39:18.841Z,24.76
2022-09-22T08:42:06.292Z,24.81
2022-09-22T08:44:59.105Z,24.77
2022-09-22T08:48:00.720Z,24.77
2022-09-22T08:50:56.382Z,24.95
2022-09-22T08:53:24.881Z,25.07
2022-09-22T08:56:15.635Z,25.07
2022-09-22T08:59:09.972Z,25.19
2022-09-22T09:01:56.310Z,25.27
2022-09-22T09:04:43.005Z,25.39
2022-09-22T09:07:50.280Z,25.41
2022-09-22T09:10:39.863Z,25.42
2022-09-22T09:13:28.841Z,25.45
2022-09-22T09:16:28.291Z,25.40
2022-09-22T09:19:15.816Z,25.26
2022-09-22T09:21:58.424Z,25.20
2022-09-22T09:27:35.130Z,25.18
2022-09-22T09:30:24.148Z,25.28
2022-09-22T09:33:06.485Z,25.40
2022-09-22T09:35:53.710Z,25.55
2022-09-22T09:38:36.169Z,25.56
2022-09-22T09:41:16.834Z,25.73
2022-09-22T09:43:46.092Z,25.83
2022-09-22T09:46:26.944Z,25.84
2022-09-22T09:49:17.027Z,25.84
2022-09-22T09:51:53.219Z,25.94
2022-09-22T09:54:23.777Z,25.98
2022-09-22T09:57:09.787Z,26.00
2022-09-22T09:59:57.872Z,25.97
2022-09-22T10:02:48.339Z,26.02
2022-09-22T10:05:18.762Z,25.99
2022-09-22T10:07:57.046Z,26.03
2022-09-22T10:10:32.768Z,26.12
2022-09-22T10:13:06.275Z,26.09
2022-09-22T10:15:39.312Z,26.07
2022-09-22T10:18:25.131Z,25.98
2022-09-22T10:21:20.286Z,26.00
2022-09-22T10:23:52.307Z,25.92
2022-09-22T10:26:26.724Z,25.90
2022-09-22T10:29:19.585Z,26.00
2022-09-22T10:32:18.450Z,26.02
2022-09-22T10:34:49.518Z,25.97
2022-09-22T10:37:20.397Z,25.88
2022-09-22T10:39:52.831Z,26.02
2022-09-22T10:42:48.719Z,25.78
2022-09-22T10:45:20.975Z,25.74
2022-09-22T10:48:00.942Z,25.82
2022-09-22T10:50:32.443Z,25.78
2022-09-22T10:53:27.980Z,25.71
2022-09-22T10:56:14.366Z,25.73
2022-09-22T10:59:04.533Z,25.78
2022-09-22T11:01:50.409Z,25.84
2022-09-22T11:05:09.198Z,25.92
2022-09-22T11:08:23.952Z,26.03
2022-09-22T11:11:19.019Z,26.09
2022-09-22T11:14:16.718Z,26.26
2022-09-22T11:17:21.479Z,26.25
2022-09-22T11:20:17.030Z,26.15
2022-09-22T11:23:26.588Z,26.33
2022-09-22T11:26:25.327Z,26.26
2022-09-22T11:29:27.318Z,26.16
2022-09-22T11:32:15.917Z,26.20
2022-09-22T11:35:17.113Z,26.36
2022-09-22T11:38:24.669Z,26.51
2022-09-22T11:41:16.815Z,26.37
2022-09-22T11:43:59.344Z,26.27
2022-09-22T11:46:55.333Z,26.36
2022-09-22T11:50:00.225Z,26.43
2022-09-22T11:52:58.461Z,26.48
2022-09-22T11:55:40.271Z,26.60
2022-09-22T11:58:25.860Z,26.50
2022-09-22T12:01:13.091Z,26.49
2022-09-22T12:03:48.274Z,26.50
2022-09-22T12:06:26.952Z,26.59
2022-09-22T12:09:14.052Z,26.40
2022-09-22T12:11:42.776Z,26.42
2022-09-22T12:14:16.477Z,26.61
2022-09-22T12:17:00.669Z,26.58
2022-09-22T12:19:31.876Z,26.87
2022-09-22T12:22:20.943Z,26.98
2022-09-22T12:24:49.992Z,27.06
2022-09-22T12:27:28.037Z,27.10
2022-09-22T12:30:04.020Z,27.25
2022-09-22T12:32:43.242Z,27.18
2022-09-22T12:35:30.328Z,27.16
2022-09-22T12:38:05.646Z,27.05
2022-09-22T12:40:37.662Z,26.74
2022-09-22T12:43:32.652Z,26.62
2022-09-22T12:46:14.019Z,26.32
2022-09-22T12:48:57.071Z,26.31
2022-09-22T12:51:33.724Z,26.22
2022-09-22T12:54:25.029Z,26.32
2022-09-22T12:57:24.076Z,26.45
2022-09-22T13:00:14.478Z,26.43
2022-09-22T13:02:44.995Z,26.44
2022-09-22T13:05:12.492Z,26.42
2022-09-22T13:07:45.643Z,26.30
2022-09-22T13:10:22.716Z,26.14
2022-09-22T13:13:10.902Z,26.07
2022-09-22T13:15:46.492Z,26.04
2022-09-22T13:18:52.392Z,26.06
2022-09-22T13:21:24.428Z,26.12
2022-09-22T13:23:52.282Z,26.23
2022-09-22T13:26:28.210Z,26.22
2022-09-22T13:29:21.580Z,26.28
2022-09-22T13:31:57.229Z,26.31
2022-09-22T13:34:35.840Z,26.11
2022-09-22T13:37:24.771Z,26.18
2022-09-22T13:39:54.785Z,26.22
2022-09-22T13:42:35.030Z,26.03
2022-09-22T13:45:06.967Z,26.00
2022-09-22T13:47:38.245Z,26.03
2022-09-22T13:50:10.113Z,26.25
2022-09-22T13:52:40.414Z,26.27
2022-09-22T13:55:26.738Z,26.02
2022-09-22T13:57:59.430Z,25.96
2022-09-22T14:00:49.861Z,25.89
2022-09-22T14:03:23.050Z,26.00
2022-09-22T14:05:53.974Z,25.97
2022-09-22T14:08:29.774Z,26.00
2022-09-22T14:10:59.862Z,25.84
2022-09-22T14:14:01.837Z,26.00
2022-09-22T14:16:36.793Z,25.90
2022-09-22T14:19:29.634Z,25.87
2022-09-22T14:21:59.617Z,25.96
2022-09-22T14:24:34.241Z,26.10
2022-09-22T14:27:09.979Z,26.17
2022-09-22T14:29:41.296Z,26.01
2022-09-22T14:32:20.246Z,25.95
2022-09-22T14:34:50.176Z,25.98
2022-09-22T14:37:21.143Z,25.92
2022-09-22T14:39:51.284Z,25.98
2022-09-22T14:42:26.477Z,26.08
2022-09-22T14:45:14.380Z,25.90
2022-09-22T14:47:43.117Z,25.69
2022-09-22T14:50:37.797Z,25.76
2022-09-22T14:53:19.784Z,25.84
2022-09-22T14:55:51.086Z,25.98
2022-09-22T14:58:25.956Z,26.04
2022-09-22T15:01:32.077Z,26.05
2022-09-22T15:04:04.548Z,26.12
2022-09-22T15:06:40.333Z,26.22
2022-09-22T15:09:19.951Z,26.36
2022-09-22T15:12:03.410Z,26.22
2022-09-22T15:14:40.993Z,26.26
2022-09-22T15:17:54.324Z,26.24
2022-09-22T15:20:29.398Z,26.16
2022-09-22T15:22:58.196Z,26.12
2022-09-22T15:25:25.953Z,26.17
2022-09-22T15:28:27.319Z,26.11
2022-09-22T15:30:55.281Z,26.15
2022-09-22T15:33:23.616Z,26.11
2022-09-22T15:36:01.283Z,26.09
2022-09-22T15:38:38.223Z,26.20
2022-09-22T15:41:06.501Z,26.33
2022-09-22T15:43:35.040Z,26.19
2022-09-22T15:46:05.905Z,26.29
2022-09-22T15:48:41.131Z,26.05
2022-09-22T15:51:15.063Z,26.13
2022-09-22T15:53:46.656Z,26.26
2022-09-22T15:56:22.603Z,26.19
2022-09-22T15:58:54.179Z,26.17
2022-09-22T16:01:29.950Z,26.17
2022-09-22T16:04:01.158Z,26.13
2022-09-22T16:06:29.231Z,26.05
2022-09-22T16:08:58.869Z,25.94
2022-09-22T16:11:31.119Z,25.90
2022-09-22T16:14:06.895Z,25.84
2022-09-22T16:16:36.752Z,25.95
2022-09-22T16:19:11.227Z,26.05
2022-09-22T16:21:41.678Z,25.92
2022-09-22T16:24:10.986Z,25.91
2022-09-22T16:26:40.701Z,25.84
2022-09-22T16:29:09.244Z,25.86
2022-09-22T16:31:37.839Z,25.80
2022-09-22T16:34:09.022Z,25.81
2022-09-22T16:36:59.737Z,25.80
2022-09-22T16:39:28.110Z,25.67
2022-09-22T16:41:59.817Z,25.72
2022-09-22T16:44:27.874Z,25.76
2022-09-22T16:46:56.054Z,25.78
2022-09-22T16:49:25.244Z,25.72
2022-09-22T16:51:54.662Z,25.73
2022-09-22T16:54:22.799Z,25.81
2022-09-22T16:56:52.381Z,25.69
2022-09-22T16:59:22.937Z,25.61
2022-09-22T17:01:51.303Z,25.54
2022-09-22T17:04:19.802Z,25.41
2022-09-22T17:06:48.446Z,25.32
2022-09-22T17:09:17.277Z,25.27
2022-09-22T17:11:46.799Z,25.27
2022-09-22T17:14:24.821Z,25.23
2022-09-22T17:16:56.867Z,25.03
2022-09-22T17:19:28.202Z,25.02
2022-09-22T17:21:57.393Z,25.02
2022-09-22T17:24:26.656Z,24.88
2022-09-22T17:26:59.428Z,24.86
2022-09-22T17:29:32.965Z,24.78
2022-09-22T17:32:03.617Z,24.80
2022-09-22T17:34:35.689Z,24.70
2022-09-22T17:37:04.969Z,24.71
2022-09-22T17:39:32.644Z,24.70
2022-09-22T17:42:00.555Z,24.70
2022-09-22T17:44:31.252Z,24.67
2022-09-22T17:47:18.065Z,24.59
2022-09-22T17:50:04.119Z,24.65
2022-09-22T17:52:32.279Z,24.62
2022-09-22T17:55:10.554Z,24.64
2022-09-22T17:57:44.055Z,24.67
2022-09-22T18:00:15.405Z,24.69
2022-09-22T18:02:44.245Z,24.62
2022-09-22T18:05:14.428Z,24.52
2022-09-22T18:07:42.890Z,24.44
2022-09-22T18:10:13.537Z,24.31
2022-09-22T18:12:43.015Z,24.35
2022-09-22T18:15:13.705Z,24.32
2022-09-22T18:17:43.372Z,24.36
2022-09-22T18:20:18.763Z,24.30
2022-09-22T18:22:48.369Z,24.32
2022-09-22T18:25:19.905Z,24.22
2022-09-22T18:27:51.308Z,24.26
2022-09-22T18:30:23.598Z,24.23
2022-09-22T18:32:58.172Z,24.18
2022-09-22T18:35:34.545Z,24.18
2022-09-22T18:38:04.198Z,24.22
2022-09-22T18:40:34.355Z,24.24
2022-09-22T18:43:03.483Z,24.27
2022-09-22T18:45:32.713Z,24.23
2022-09-22T18:48:03.377Z,24.28
2022-09-22T18:50:36.172Z,24.30
2022-09-22T18:53:04.429Z,24.28
2022-09-22T18:55:32.941Z,24.24
2022-09-22T18:58:01.460Z,24.20
2022-09-22T19:00:30.154Z,24.25
2022-09-22T19:02:59.514Z,24.20
2022-09-22T19:05:29.103Z,24.26
2022-09-22T19:08:01.124Z,24.30
2022-09-22T19:10:28.660Z,24.34
2022-09-22T19:12:56.541Z,24.29
2022-09-22T19:15:26.125Z,24.26
2022-09-22T19:17:53.787Z,24.26
2022-09-22T19:20:26.577Z,24.25
2022-09-22T19:22:55.002Z,24.21
2022-09-22T19:25:23.564Z,24.14
2022-09-22T19:27:52.951Z,24.14
2022-09-22T19:30:24.840Z,24.12
2022-09-22T19:32:55.940Z,24.12
2022-09-22T19:35:24.173Z,24.13
2022-09-22T19:37:54.076Z,24.08
2022-09-22T19:40:25.632Z,24.10
2022-09-22T19:42:54.936Z,24.10
2022-09-22T19:45:28.490Z,24.05
2022-09-22T19:51:11.291Z,24.02
2022-09-22T19:53:39.517Z,24.02
2022-09-22T19:56:08.292Z,24.03
2022-09-22T19:58:36.867Z,24.01
2022-09-22T20:01:09.080Z,24.01
2022-09-22T20:03:37.629Z,23.95
2022-09-22T20:06:06.403Z,24.00
2022-09-22T20:08:39.140Z,24.01
2022-09-22T20:11:25.723Z,24.02
2022-09-22T20:14:17.961Z,23.88
2022-09-22T20:17:01.918Z,23.80
2022-09-22T20:19:50.378Z,23.67
2022-09-22T20:22:32.332Z,23.67
2022-09-22T20:25:12.883Z,23.58
2022-09-22T20:27:45.281Z,23.59
2022-09-22T20:30:18.358Z,23.50
2022-09-22T20:33:03.781Z,23.54
2022-09-22T20:35:43.183Z,23.48
2022-09-22T20:38:19.839Z,23.52
2022-09-22T20:40:56.120Z,23.50
2022-09-22T20:43:32.270Z,23.46
2022-09-22T20:46:05.721Z,23.42
2022-09-22T20:48:37.043Z,23.43
2022-09-22T20:51:19.001Z,23.37
2022-09-22T20:53:57.460Z,23.34
2022-09-22T20:56:29.926Z,23.32
2022-09-22T20:59:01.830Z,23.37
2022-09-22T21:01:33.211Z,23.42
2022-09-22T21:04:16.156Z,23.44
2022-09-22T21:06:48.537Z,23.43
2022-09-22T21:09:35.562Z,23.35
2022-09-22T21:12:09.126Z,23.32
2022-09-22T21:14:37.061Z,23.27
2022-09-22T21:17:07.703Z,23.27
2022-09-22T21:19:37.016Z,23.17
2022-09-22T21:22:05.261Z,23.16
2022-09-22T21:24:32.926Z,23.18
2022-09-22T21:27:00.731Z,23.24
2022-09-22T21:29:32.655Z,23.26
2022-09-22T21:32:04.235Z,23.31
2022-09-22T21:34:32.431Z,23.33
2022-09-22T21:37:01.197Z,23.25
2022-09-22T21:39:34.908Z,23.24
2022-09-22T21:42:03.507Z,23.20
2022-09-22T21:44:31.386Z,23.24
2022-09-22T21:47:01.175Z,23.21
2022-09-22T21:49:29.628Z,23.16
2022-09-22T21:51:58.215Z,23.01
2022-09-22T21:54:27.269Z,23.03
2022-09-22T21:56:55.541Z,22.99
2022-09-22T21:59:23.561Z,22.99
2022-09-22T22:01:52.314Z,22.87
2022-09-22T22:04:21.201Z,22.84
2022-09-22T22:06:50.367Z,22.82
2022-09-22T22:09:24.164Z,22.77
2022-09-22T22:11:58.672Z,22.71
2022-09-22T22:14:33.509Z,22.76
2022-09-22T22:17:03.576Z,22.77
2022-09-22T22:19:32.268Z,22.80
2022-09-22T22:22:01.138Z,22.76
2022-09-22T22:24:32.143Z,22.70
2022-09-22T22:27:10.295Z,22.63
2022-09-22T22:29:41.721Z,22.65
2022-09-22T22:32:10.869Z,22.52
2022-09-22T22:34:39.090Z,22.50
2022-09-22T22:37:10.136Z,22.54
2022-09-22T22:39:38.653Z,22.63
2022-09-22T22:42:07.616Z,22.64
2022-09-22T22:44:36.605Z,22.57
2022-09-22T22:47:05.694Z,22.49
2022-09-22T22:49:33.756Z,22.52
2022-09-22T22:52:01.906Z,22.41
2022-09-22T22:54:29.798Z,22.52
2022-09-22T22:56:57.665Z,22.45
2022-09-22T22:59:25.036Z,22.44
2022-09-22T23:01:55.087Z,22.41
2022-09-22T23:04:32.798Z,22.20
2022-09-22T23:07:20.957Z,22.20
2022-09-22T23:10:12.412Z,22.26
2022-09-22T23:12:53.069Z,22.20
2022-09-22T23:15:24.537Z,22.24
2022-09-22T23:17:52.850Z,22.26
2022-09-22T23:20:26.686Z,22.23
2022-09-22T23:22:54.963Z,22.23
2022-09-22T23:25:29.898Z,22.27
2022-09-22T23:28:08.723Z,22.22
2022-09-22T23:30:49.224Z,22.22
2022-09-22T23:33:21.560Z,22.30
2022-09-22T23:36:00.818Z,22.33
2022-09-22T23:38:31.248Z,22.34
2022-09-22T23:41:01.001Z,22.42
2022-09-22T23:43:34.541Z,22.41
2022-09-22T23:46:06.007Z,22.41
2022-09-22T23:48:42.816Z,22.31
2022-09-22T23:51:16.714Z,22.38
2022-09-22T23:53:49.917Z,22.33
2022-09-22T23:56:20.146Z,22.39
2022-09-22T23:58:49.985Z,22.26
